Airfield :
LOGIN :

Register | Disclaimer

   EN    FR    IT 

 










Legend :    VFR   Marginal VFR   IFR   Intensive IFR   Very Intensive IFR
Visi :
Ceiling :
>= 8 km
>= 3000ft
5 to 8 km
1000 to 3000 ft
1500m to 5 km
500 to 1000 ft
800 to 1500m
200 to 500 ft
< 800m
< 200 ft
Symbols :   Thunderstorms  Fog  Heavy snow  Heavy precipitations  Wind > 20 kt
SIGMETs :     Misc.  Thunderstorms  Icing  Turbulence  Mountain Waves  Volcanic Ashes






- Airport Elevation : 202 ft
- IATA code : LGW


EGKK - London Gatwick

CURRENT METAR :
  • 270750Z 35015KT 9999 BKN013 04/01 Q0989

EXPIRED METARs :
  • 270720Z 36012KT 330V030 9999 BKN014 03/01 Q0988
  • 270650Z 35011KT 9999 -RA BKN016 03/01 Q0987
  • 270620Z 35012KT 9999 BKN017 03/01 Q0986
  • 270550Z 35017G27KT 9000 -RA BKN013 03/01 Q0985

TAF TAF EGKK
Valid from the 27 at 06:00 until the 28 at 12:00 UTC


270458Z 2706/2812 33017KT 9999 SCT015
TEMPO 2706/2719 7000 -RA BKN010
TEMPO 2706/2709 33020G30KT
PROB30
TEMPO 2706/2708 4000 RASN BKN006
PROB30
TEMPO 2708/2715 4000 RA BKN008
BECMG 2709/2712 33016G26KT
PROB30
TEMPO 2712/2721 33020G36KT
PROB30
TEMPO 2719/2806 BKN012
BECMG 2805/2808 33012KT



MET'MAP, your aeronautical weather chart ! - Copyright ORBIFLY December 2007 - Disclaimer

ORBIFLY MET'MAP TEAM :

Programming & Development : Alexandra Zaïnal
Concept & original design : Baudouin d'Aumeries
Assistance for programming : Marc-Olivier Méhu
Technical & hardware support : Manuel Goepfert

Contact : metmap@orbifly.com




SOURCES & CREDITS :

   NOAA